Time;durP1;ratioP1;P1;durP2;ratioP2;P2;SDS_P1;SDS_P2;PMS_P1;PMS_P2;Temp;Humidity;BMP_temperature;BMP_pressure;BME280_temperature;BME280_humidity;BME280_pressure;Samples;Min_cycle;Max_cycle;Signal;HPM_P1;HPM_P2
2022/03/11 00:00:26;;;;;;;16.50;9.57;;;;;;;-2.56;58.89;96158.72;5066082;28;20025;-82
2022/03/11 00:02:51;;;;;;;21.92;10.13;;;;;;;-2.59;59.42;96167.59;5064794;28;20029;-81
2022/03/11 00:05:17;;;;;;;20.48;10.18;;;;;;;-2.57;59.27;96167.50;5066159;28;20032;-83
2022/03/11 00:07:42;;;;;;;18.17;9.50;;;;;;;-2.51;58.57;96162.78;5048346;28;20472;-82
2022/03/11 00:10:08;;;;;;;17.13;9.02;;;;;;;-2.55;58.77;96165.66;5065167;28;20449;-82
2022/03/11 00:12:36;;;;;;;18.65;9.75;;;;;;;-2.59;58.70;96158.84;5066046;28;20859;-82
2022/03/11 00:15:02;;;;;;;17.27;10.10;;;;;;;-2.63;59.08;96156.38;5066853;28;20024;-82
2022/03/11 00:17:28;;;;;;;17.48;10.13;;;;;;;-2.59;58.50;96162.34;5064019;28;20537;-82
2022/03/11 00:19:53;;;;;;;20.95;10.20;;;;;;;-2.60;58.42;96160.66;5064650;28;20591;-82
2022/03/11 00:22:18;;;;;;;17.35;10.05;;;;;;;-2.67;58.39;96151.34;5064754;28;20043;-82
2022/03/11 00:24:44;;;;;;;21.90;10.52;;;;;;;-2.67;58.87;96157.47;5082432;28;20480;-82
2022/03/11 00:27:09;;;;;;;22.02;10.85;;;;;;;-2.69;58.65;96151.44;5069822;28;20017;-82
2022/03/11 00:29:35;;;;;;;18.70;10.27;;;;;;;-2.73;58.92;96155.16;5051180;28;20031;-82
2022/03/11 00:32:00;;;;;;;19.55;10.60;;;;;;;-2.66;58.68;96143.41;5068689;28;20028;-82
2022/03/11 00:34:26;;;;;;;20.63;10.60;;;;;;;-2.67;58.80;96146.97;5068340;28;20028;-83
2022/03/11 00:36:51;;;;;;;19.42;10.32;;;;;;;-2.75;59.07;96136.84;5068935;28;20021;-82
2022/03/11 00:39:17;;;;;;;23.08;10.40;;;;;;;-2.73;58.97;96142.03;5084822;28;20029;-82
2022/03/11 00:41:42;;;;;;;19.25;10.50;;;;;;;-2.70;59.39;96144.50;5068059;28;20495;-82
2022/03/11 00:44:07;;;;;;;18.30;8.75;;;;;;;-2.71;57.99;96141.94;5051555;28;20020;-82
2022/03/11 00:46:33;;;;;;;18.30;10.25;;;;;;;-2.80;58.11;96148.50;5034857;28;20402;-83
2022/03/11 00:48:58;;;;;;;16.95;9.32;;;;;;;-2.84;57.99;96141.72;5068662;28;20483;-82
2022/03/11 00:51:24;;;;;;;17.77;8.60;;;;;;;-2.71;57.31;96145.44;5067856;28;20032;-82
2022/03/11 00:53:49;;;;;;;18.67;8.98;;;;;;;-2.74;57.90;96135.91;5068321;28;20031;-82
2022/03/11 00:56:15;;;;;;;17.38;8.65;;;;;;;-2.79;57.60;96134.47;5067804;28;20466;-80
2022/03/11 00:58:40;;;;;;;17.58;8.38;;;;;;;-2.76;57.33;96134.31;5068182;28;20070;-82
2022/03/11 01:01:05;;;;;;;13.95;7.63;;;;;;;-2.79;57.99;96139.72;5034341;28;20082;-81
2022/03/11 01:03:31;;;;;;;15.85;9.00;;;;;;;-2.83;58.62;96141.63;5068832;28;20024;-82
2022/03/11 01:05:56;;;;;;;14.70;8.60;;;;;;;-2.77;58.89;96148.34;5069212;28;20031;-81
2022/03/11 01:08:22;;;;;;;16.63;8.40;;;;;;;-2.80;58.26;96135.38;5068841;28;20024;-81
2022/03/11 01:10:47;;;;;;;16.95;8.85;;;;;;;-2.83;58.02;96140.78;5067603;28;20029;-83
2022/03/11 01:13:13;;;;;;;17.90;8.85;;;;;;;-2.85;58.32;96146.09;5051042;28;20051;-82
2022/03/11 01:15:38;;;;;;;15.95;9.07;;;;;;;-2.95;59.09;96153.59;5068857;28;20028;-83
2022/03/11 01:18:04;;;;;;;12.07;8.07;;;;;;;-2.96;59.47;96144.03;5068235;28;20036;-82
2022/03/11 01:20:29;;;;;;;13.90;8.27;;;;;;;-2.91;59.09;96149.03;5050874;28;20025;-82
2022/03/11 01:22:55;;;;;;;17.85;7.93;;;;;;;-3.01;58.59;96149.50;5050275;28;20029;-82
2022/03/11 01:25:20;;;;;;;13.00;7.45;;;;;;;-2.98;59.21;96145.84;5067148;28;20031;-82
2022/03/11 01:27:45;;;;;;;16.92;8.05;;;;;;;-3.02;59.24;96145.19;5067289;28;20024;-81
2022/03/11 01:30:13;;;;;;;14.50;7.85;;;;;;;-3.02;59.29;96150.44;5050328;28;20032;-82
2022/03/11 01:32:40;;;;;;;12.45;7.18;;;;;;;-2.98;59.45;96145.84;5067602;28;20029;-81
2022/03/11 01:35:07;;;;;;;12.95;6.22;;;;;;;-2.99;58.53;96145.03;5050813;28;20062;-81
2022/03/11 01:37:32;;;;;;;13.73;6.88;;;;;;;-2.93;57.66;96143.88;5066219;28;20035;-81
2022/03/11 01:39:58;;;;;;;29.08;13.07;;;;;;;-2.97;58.32;96139.69;5049933;28;20024;-81
2022/03/11 01:42:23;;;;;;;34.47;15.85;;;;;;;-2.91;58.42;96141.16;5067179;28;20028;-82
2022/03/11 01:44:49;;;;;;;49.80;22.08;;;;;;;-2.99;58.92;96145.03;5066592;28;20020;-81
2022/03/11 01:47:14;;;;;;;35.92;17.35;;;;;;;-2.99;58.95;96145.03;5066738;28;20058;-81
2022/03/11 01:49:40;;;;;;;33.78;16.33;;;;;;;-3.01;58.89;96146.00;5066959;28;20415;-81
2022/03/11 01:52:05;;;;;;;34.92;16.30;;;;;;;-3.05;59.08;96147.09;5066244;28;20399;-82
2022/03/11 01:54:31;;;;;;;31.15;14.65;;;;;;;-3.15;58.86;96146.69;5050556;28;20028;-81
2022/03/11 01:56:56;;;;;;;29.67;15.63;;;;;;;-3.16;59.53;96143.22;5049939;28;20025;-81
2022/03/11 01:59:22;;;;;;;31.60;15.85;;;;;;;-3.23;59.46;96136.56;5050264;28;20509;-82
2022/03/11 02:01:47;;;;;;;37.35;17.48;;;;;;;-3.23;60.09;96133.94;5066431;28;20021;-82
2022/03/11 02:04:13;;;;;;;32.67;17.73;;;;;;;-3.31;60.57;96136.09;5066789;28;20029;-81
2022/03/11 02:06:38;;;;;;;33.70;17.60;;;;;;;-3.33;60.50;96133.53;5049565;28;20032;-82
2022/03/11 02:09:04;;;;;;;37.08;18.40;;;;;;;-3.37;60.13;96134.63;5066384;28;20027;-82
2022/03/11 02:11:29;;;;;;;32.58;18.35;;;;;;;-3.45;60.29;96142.84;5066517;28;20035;-81
2022/03/11 02:13:59;;;;;;;32.45;17.23;;;;;;;-3.50;60.24;96144.84;5049465;28;20103;-82
2022/03/11 02:16:28;;;;;;;29.75;16.02;;;;;;;-3.57;60.69;96139.03;5066855;28;20016;-82
2022/03/11 02:18:55;;;;;;;26.63;15.30;;;;;;;-3.63;60.97;96144.56;5067164;28;20052;-82
2022/03/11 02:21:21;;;;;;;30.27;15.95;;;;;;;-3.66;61.06;96140.31;5066256;28;20031;-82
2022/03/11 02:23:51;;;;;;;31.33;16.05;;;;;;;-3.67;61.40;96143.00;5049414;28;20033;-82
2022/03/11 02:26:17;;;;;;;26.27;14.93;;;;;;;-3.76;61.60;96145.16;5050077;28;20097;-83
2022/03/11 02:28:44;;;;;;;28.02;14.65;;;;;;;-3.78;61.54;96140.88;5049952;28;20024;-81
2022/03/11 02:31:09;;;;;;;27.05;13.20;;;;;;;-3.76;61.41;96149.53;5048868;28;20028;-82
2022/03/11 02:33:34;;;;;;;24.55;11.02;;;;;;;-3.72;60.95;96151.09;5049493;28;20025;-81
2022/03/11 02:36:00;;;;;;;25.48;12.18;;;;;;;-3.73;61.20;96147.63;5065856;28;20028;-81
2022/03/11 02:38:26;;;;;;;22.33;12.63;;;;;;;-3.71;60.97;96158.03;5066201;28;20097;-81
2022/03/11 02:40:52;;;;;;;25.58;12.85;;;;;;;-3.73;60.66;96154.63;5049171;28;20099;-81
2022/03/11 02:43:17;;;;;;;22.67;12.30;;;;;;;-3.71;61.03;96155.44;5065632;28;20127;-81
2022/03/11 02:45:43;;;;;;;24.15;12.57;;;;;;;-3.69;60.72;96152.72;5048557;28;20064;-81
2022/03/11 02:48:08;;;;;;;23.92;12.40;;;;;;;-3.67;59.54;96158.72;5067324;28;20035;-81
2022/03/11 02:50:34;;;;;;;23.30;12.82;;;;;;;-3.75;60.22;96159.97;5065597;28;20045;-81
2022/03/11 02:52:59;;;;;;;24.08;12.32;;;;;;;-3.77;61.04;96163.56;5066839;28;20021;-81
2022/03/11 02:55:24;;;;;;;21.52;11.15;;;;;;;-3.77;60.81;96163.56;5066856;28;20099;-81
2022/03/11 02:57:50;;;;;;;22.60;12.13;;;;;;;-3.79;61.37;96168.03;5065717;28;20024;-81
2022/03/11 03:00:16;;;;;;;21.38;11.80;;;;;;;-3.79;60.92;96168.03;5065173;28;20032;-81
2022/03/11 03:02:42;;;;;;;23.88;11.80;;;;;;;-3.69;60.25;96165.84;5065364;28;20063;-82
2022/03/11 03:05:07;;;;;;;19.48;11.45;;;;;;;-3.68;59.99;96168.41;5065338;28;20086;-81
2022/03/11 03:07:33;;;;;;;17.95;10.57;;;;;;;-3.70;59.69;96170.22;5066280;28;20108;-81
2022/03/11 03:09:58;;;;;;;22.27;11.30;;;;;;;-3.72;59.69;96169.44;5031755;28;20028;-81
2022/03/11 03:12:27;;;;;;;20.92;11.98;;;;;;;-3.65;59.04;96170.00;5048319;28;20037;-81
2022/03/11 03:14:53;;;;;;;20.15;11.35;;;;;;;-3.65;59.05;96167.38;5065270;28;20082;-81
2022/03/11 03:17:19;;;;;;;18.08;11.00;;;;;;;-3.71;59.25;96173.78;5065305;28;20029;-81
2022/03/11 03:19:45;;;;;;;27.90;13.30;;;;;;;-3.83;59.20;96174.31;5065118;28;20504;-81
2022/03/11 03:22:11;;;;;;;22.33;12.35;;;;;;;-3.93;59.69;96172.13;5066492;28;20060;-81
2022/03/11 03:24:36;;;;;;;23.15;11.65;;;;;;;-4.01;59.55;96169.84;5066102;28;20287;-81
2022/03/11 03:27:02;;;;;;;22.20;12.20;;;;;;;-4.02;60.22;96170.78;5048752;28;20503;-81
2022/03/11 03:29:28;;;;;;;21.00;11.40;;;;;;;-4.03;60.50;96174.31;5064637;28;20055;-81
2022/03/11 03:31:57;;;;;;;21.73;12.02;;;;;;;-4.01;60.58;96171.59;5047931;28;20032;-81
2022/03/11 03:34:29;;;;;;;20.25;11.13;;;;;;;-4.08;60.93;96175.44;5064819;28;20055;-82
2022/03/11 03:36:55;;;;;;;22.20;10.73;;;;;;;-4.11;60.74;96179.88;5065227;28;20548;-82
2022/03/11 03:39:20;;;;;;;22.08;11.23;;;;;;;-4.10;60.53;96176.38;5081637;28;20448;-82
2022/03/11 03:41:45;;;;;;;20.67;11.57;;;;;;;-4.17;60.78;96172.31;5048130;28;20028;-81
2022/03/11 03:44:11;;;;;;;23.60;13.18;;;;;;;-4.11;59.44;96174.66;5066420;28;20024;-82
2022/03/11 03:46:37;;;;;;;24.00;12.82;;;;;;;-4.19;59.18;96171.50;5064435;28;20043;-81
2022/03/11 03:49:02;;;;;;;24.05;13.18;;;;;;;-4.24;59.37;96176.13;5064370;28;20032;-81
2022/03/11 03:51:28;;;;;;;23.50;11.93;;;;;;;-4.25;60.04;96174.41;5064844;28;20475;-81
2022/03/11 03:53:53;;;;;;;21.70;10.73;;;;;;;-4.27;59.19;96176.25;5065166;28;20027;-83
2022/03/11 03:56:19;;;;;;;24.88;10.85;;;;;;;-4.30;59.86;96176.38;5065892;28;20017;-82
2022/03/11 03:58:44;;;;;;;47.28;19.55;;;;;;;-4.31;58.64;96175.53;5065980;28;20024;-81
2022/03/11 04:01:10;;;;;;;34.40;15.68;;;;;;;-4.27;57.86;96178.88;5070522;28;20048;-81
2022/03/11 04:03:35;;;;;;;22.00;12.30;;;;;;;-4.31;57.91;96183.41;5068658;28;20021;-81
2022/03/11 04:06:01;;;;;;;19.52;11.30;;;;;;;-4.35;57.38;96182.66;5054736;28;20454;-81
2022/03/11 04:08:27;;;;;;;21.52;11.05;;;;;;;-4.43;58.28;96187.38;5068512;28;20032;-82
2022/03/11 04:10:52;;;;;;;20.65;11.02;;;;;;;-4.45;58.16;96193.63;5068763;28;20037;-81
2022/03/11 04:13:18;;;;;;;18.58;10.40;;;;;;;-4.45;58.04;96188.38;5070237;28;20017;-81
2022/03/11 04:15:43;;;;;;;22.65;11.55;;;;;;;-4.48;58.25;96187.59;5069778;28;20457;-81
2022/03/11 04:18:09;;;;;;;17.77;10.40;;;;;;;-4.52;58.71;96198.25;5069921;28;20068;-81
2022/03/11 04:20:34;;;;;;;18.10;10.95;;;;;;;-4.55;58.88;96199.25;5069132;28;20017;-81
2022/03/11 04:23:00;;;;;;;20.77;11.02;;;;;;;-4.56;59.55;96200.16;5068172;28;20063;-83
2022/03/11 04:25:25;;;;;;;21.13;11.48;;;;;;;-4.55;59.65;96199.25;5067432;28;20058;-84
2022/03/11 04:27:50;;;;;;;26.77;12.13;;;;;;;-4.48;59.37;96198.06;5068079;28;20520;-81
2022/03/11 04:30:16;;;;;;;23.25;12.57;;;;;;;-4.57;60.14;96198.44;5067779;28;20037;-81
2022/03/11 04:32:41;;;;;;;24.00;12.05;;;;;;;-4.59;59.91;96193.28;5067684;28;20033;-82
2022/03/11 04:35:07;;;;;;;26.67;13.40;;;;;;;-4.57;59.94;96195.84;5069451;28;20118;-82
2022/03/11 04:37:33;;;;;;;27.10;12.48;;;;;;;-4.69;59.83;96191.94;5068837;28;20044;-82
2022/03/11 04:39:58;;;;;;;23.33;12.45;;;;;;;-4.63;60.20;96198.72;5050971;28;20025;-81
2022/03/11 04:42:24;;;;;;;30.33;15.85;;;;;;;-4.62;59.90;96198.66;5067814;28;20024;-81
2022/03/11 04:44:50;;;;;;;38.72;17.15;;;;;;;-4.68;60.00;96196.28;5084540;28;20510;-83
2022/03/11 04:47:15;;;;;;;34.22;18.25;;;;;;;-4.67;60.23;96192.75;5068813;28;20043;-81
2022/03/11 04:49:41;;;;;;;38.60;18.50;;;;;;;-4.72;59.99;96208.66;5051290;28;20078;-81
2022/03/11 04:52:07;;;;;;;48.75;21.58;;;;;;;-4.75;60.43;96206.16;5068340;28;20025;-81
2022/03/11 04:54:32;;;;;;;44.50;23.33;;;;;;;-4.89;60.95;96204.13;5037134;28;20028;-82
2022/03/11 04:56:58;;;;;;;38.13;19.33;;;;;;;-4.91;61.40;96210.31;5053943;28;20660;-81
2022/03/11 04:59:23;;;;;;;28.92;15.50;;;;;;;-4.92;61.58;96212.09;5068725;28;20028;-82
2022/03/11 05:01:50;;;;;;;30.00;14.90;;;;;;;-4.78;60.96;96208.03;5067604;28;20055;-82
2022/03/11 05:04:15;;;;;;;22.48;12.20;;;;;;;-4.82;61.96;96216.94;5071257;28;20574;-81
2022/03/11 05:06:41;;;;;;;24.45;12.40;;;;;;;-4.69;61.74;96223.38;5084356;28;20024;-82
2022/03/11 05:09:07;;;;;;;25.85;11.15;;;;;;;-4.70;62.26;96224.28;5068706;28;20016;-83
2022/03/11 05:11:32;;;;;;;24.58;10.57;;;;;;;-4.67;61.92;96216.31;5065909;28;20032;-83
2022/03/11 05:13:58;;;;;;;17.85;8.82;;;;;;;-4.50;61.38;96222.63;5050513;28;20028;-82
2022/03/11 05:16:23;;;;;;;13.95;8.05;;;;;;;-4.37;60.28;96225.56;5068666;28;20028;-82
2022/03/11 05:18:49;;;;;;;18.65;8.48;;;;;;;-4.43;61.23;96231.91;5050447;28;20208;-83
2022/03/11 05:21:14;;;;;;;14.02;7.68;;;;;;;-4.47;61.17;96233.81;5070518;28;20033;-81
2022/03/11 05:23:40;;;;;;;18.25;8.52;;;;;;;-4.49;61.17;96230.41;5068324;28;20040;-81
2022/03/11 05:26:24;;;;;;;16.65;8.98;;;;;;;-4.53;61.13;96225.38;5072374;28;20523;-82
2022/03/11 05:28:50;;;;;;;14.02;8.65;;;;;;;-4.57;61.68;96236.88;5066940;28;20024;-82
2022/03/11 05:31:15;;;;;;;13.32;8.10;;;;;;;-4.59;62.00;96234.31;5066985;28;20040;-85
2022/03/11 05:33:41;;;;;;;17.13;8.05;;;;;;;-4.65;61.62;96245.91;5033610;28;20036;-84
2022/03/11 05:36:08;;;;;;;18.30;9.25;;;;;;;-4.57;61.94;96242.97;5050357;28;20032;-82
2022/03/11 05:38:33;;;;;;;19.73;9.63;;;;;;;-4.54;61.54;96248.06;5066852;28;20024;-82
2022/03/11 05:40:58;;;;;;;17.52;9.70;;;;;;;-4.52;62.07;96251.50;5050093;28;20028;-82
2022/03/11 05:43:24;;;;;;;20.13;10.27;;;;;;;-4.44;61.90;96242.44;5066373;28;20017;-82
2022/03/11 05:45:49;;;;;;;18.27;9.60;;;;;;;-4.39;61.59;96250.97;5066448;28;20086;-81
2022/03/11 05:48:15;;;;;;;20.45;10.95;;;;;;;-4.34;61.45;96252.47;5066703;28;20544;-82
2022/03/11 05:50:40;;;;;;;16.90;9.95;;;;;;;-4.19;60.85;96244.88;5066804;28;20507;-82
2022/03/11 05:53:06;;;;;;;15.60;9.15;;;;;;;-4.00;59.52;96249.34;5068360;28;20032;-82
2022/03/11 05:55:31;;;;;;;15.90;8.95;;;;;;;-3.68;57.96;96252.31;5067715;28;20025;-83
2022/03/11 05:57:56;;;;;;;16.10;9.55;;;;;;;-3.64;58.71;96251.22;5066246;28;20028;-82
2022/03/11 06:00:22;;;;;;;17.52;9.50;;;;;;;-3.67;58.45;96256.63;5065401;28;20419;-81
2022/03/11 06:02:48;;;;;;;21.63;10.55;;;;;;;-3.52;58.63;96262.09;5049137;28;20522;-82
2022/03/11 06:05:14;;;;;;;21.33;10.38;;;;;;;-3.26;57.53;96258.28;5065787;28;20060;-81
2022/03/11 06:07:39;;;;;;;18.98;10.20;;;;;;;-3.31;57.32;96269.91;5066259;28;20032;-81
2022/03/11 06:10:16;;;;;;;17.67;10.38;;;;;;;-3.23;57.88;96266.00;5066047;28;20032;-81
2022/03/11 06:12:41;;;;;;;21.10;9.98;;;;;;;-2.81;56.32;96257.09;5050321;28;20032;-82
2022/03/11 06:15:08;;;;;;;18.50;9.43;;;;;;;-2.33;55.90;96257.38;5066272;28;20085;-82
2022/03/11 06:17:34;;;;;;;16.60;8.63;;;;;;;-2.20;55.47;96259.38;5049109;28;20024;-82
2022/03/11 06:19:59;;;;;;;20.02;9.50;;;;;;;-1.88;54.90;96257.75;5049305;28;20129;-81
2022/03/11 06:22:24;;;;;;;14.60;9.18;;;;;;;-1.54;53.87;96263.03;5066503;28;20037;-81
2022/03/11 06:24:50;;;;;;;16.17;9.68;;;;;;;-1.24;53.04;96258.81;5049320;28;20028;-83
2022/03/11 06:27:15;;;;;;;18.38;9.38;;;;;;;-0.96;51.82;96259.94;5066625;28;20021;-81
2022/03/11 06:29:41;;;;;;;15.98;9.27;;;;;;;-1.20;52.30;96262.13;5065784;28;20033;-83
2022/03/11 06:32:06;;;;;;;16.58;9.70;;;;;;;-1.19;51.96;96264.69;5048945;28;20032;-81
2022/03/11 06:34:33;;;;;;;18.33;9.45;;;;;;;-0.66;50.26;96269.69;5048999;28;20037;-82
2022/03/11 06:36:58;;;;;;;19.73;8.88;;;;;;;-0.28;49.33;96273.72;5049844;28;20028;-82
2022/03/11 06:39:24;;;;;;;20.58;10.43;;;;;;;-0.11;48.78;96278.94;5049747;28;20023;-81
2022/03/11 06:41:49;;;;;;;16.50;9.48;;;;;;;-0.07;49.12;96280.44;5048867;28;20036;-82
2022/03/11 06:44:16;;;;;;;13.20;8.63;;;;;;;0.15;47.90;96271.25;5064815;28;20044;-82
2022/03/11 06:46:42;;;;;;;13.10;7.88;;;;;;;-0.03;47.70;96277.53;5065552;28;20051;-83
2022/03/11 06:49:07;;;;;;;13.85;6.85;;;;;;;-0.40;47.94;96277.03;5048947;28;20406;-82
2022/03/11 06:51:33;;;;;;;10.02;6.97;;;;;;;-0.59;48.31;96274.59;5050362;28;20028;-82
2022/03/11 06:53:58;;;;;;;10.63;6.78;;;;;;;-0.17;47.26;96286.28;5065867;28;20020;-83
2022/03/11 06:56:24;;;;;;;11.90;6.82;;;;;;;-0.39;47.54;96279.59;5066621;28;20028;-83
2022/03/11 06:58:49;;;;;;;13.65;7.45;;;;;;;-0.50;48.05;96276.75;5066713;28;20032;-82
2022/03/11 07:01:16;;;;;;;12.63;7.20;;;;;;;-0.45;47.67;96281.75;5066331;28;20036;-83
2022/03/11 07:03:42;;;;;;;12.40;7.55;;;;;;;-0.34;48.39;96294.31;5065761;28;20032;-81
2022/03/11 07:06:07;;;;;;;11.32;7.18;;;;;;;-0.11;47.18;96289.50;5047980;28;20158;-82
2022/03/11 07:08:33;;;;;;;11.70;7.47;;;;;;;-0.02;46.72;96286.31;5065395;28;20032;-83
2022/03/11 07:10:59;;;;;;;10.70;7.00;;;;;;;0.35;46.18;96284.13;5065230;28;20499;-82
2022/03/11 07:13:24;;;;;;;9.95;7.00;;;;;;;0.23;46.78;96274.28;5065014;28;20028;-82
2022/03/11 07:15:49;;;;;;;13.63;6.82;;;;;;;0.66;44.30;96280.56;5048854;28;20024;-82
2022/03/11 07:18:15;;;;;;;10.38;7.03;;;;;;;0.52;46.10;96284.03;5047456;28;20043;-82
2022/03/11 07:20:40;;;;;;;10.73;6.75;;;;;;;0.58;44.32;96284.50;5066591;28;20146;-82
2022/03/11 07:23:06;;;;;;;11.82;7.35;;;;;;;0.77;44.38;96291.31;5064365;28;20573;-82
2022/03/11 07:25:31;;;;;;;11.07;6.60;;;;;;;0.79;44.77;96288.56;5066241;28;20028;-82
2022/03/11 07:27:56;;;;;;;11.10;6.93;;;;;;;0.54;44.33;96287.44;5066510;28;20021;-82
2022/03/11 07:30:22;;;;;;;10.88;6.97;;;;;;;0.38;44.40;96283.09;5066303;28;20039;-82
2022/03/11 07:32:50;;;;;;;15.50;10.90;;;;;;;0.56;44.55;96275.84;5066953;28;20033;-82
2022/03/11 07:35:15;;;;;;;13.55;9.43;;;;;;;0.85;43.90;96277.63;5064258;28;20040;-82
2022/03/11 07:37:41;;;;;;;12.57;7.35;;;;;;;0.58;44.80;96284.50;5065288;28;20094;-82
2022/03/11 07:40:08;;;;;;;14.45;7.35;;;;;;;0.27;44.81;96273.19;5064695;28;20532;-81
2022/03/11 07:42:33;;;;;;;13.15;8.05;;;;;;;0.13;45.47;96281.06;5064835;28;20036;-83
2022/03/11 07:45:00;;;;;;;11.23;7.63;;;;;;;-0.07;45.76;96277.81;5047683;28;20020;-82
2022/03/11 07:47:25;;;;;;;10.45;7.50;;;;;;;-0.19;46.23;96277.59;5066439;28;20024;-81
2022/03/11 07:49:51;;;;;;;12.23;7.45;;;;;;;-0.17;46.10;96273.09;5065144;28;20117;-81
2022/03/11 07:52:17;;;;;;;12.68;7.45;;;;;;;0.28;45.15;96266.94;5066579;28;20158;-82
2022/03/11 07:54:42;;;;;;;14.75;7.90;;;;;;;0.53;43.64;96273.41;5065074;28;20484;-82
2022/03/11 07:57:09;;;;;;;10.20;7.35;;;;;;;0.75;43.58;96279.97;5066073;28;20044;-82
2022/03/11 07:59:36;;;;;;;10.82;7.05;;;;;;;1.01;42.99;96284.56;5064588;28;20060;-82
2022/03/11 08:02:02;;;;;;;14.65;7.63;;;;;;;0.71;44.43;96281.97;5047779;28;20025;-81
2022/03/11 08:04:29;;;;;;;12.45;7.47;;;;;;;0.32;44.48;96283.47;5048022;28;20112;-82
2022/03/11 08:06:54;;;;;;;11.32;7.47;;;;;;;0.14;44.40;96282.75;5065450;28;20108;-82
2022/03/11 08:09:20;;;;;;;9.85;7.22;;;;;;;0.08;45.18;96279.53;5064755;28;20104;-81
2022/03/11 08:11:45;;;;;;;10.20;7.07;;;;;;;-0.08;44.93;96271.69;5064359;28;20032;-82
2022/03/11 08:14:13;;;;;;;11.48;7.45;;;;;;;-0.06;45.93;96272.44;5048272;28;20482;-82
2022/03/11 08:16:38;;;;;;;11.32;7.75;;;;;;;0.00;46.19;96271.25;5065779;28;20418;-82
2022/03/11 08:19:04;;;;;;;11.48;7.45;;;;;;;0.51;45.18;96279.69;5065451;28;20064;-81
2022/03/11 08:21:29;;;;;;;11.23;6.72;;;;;;;0.87;43.48;96270.47;5065767;28;20025;-81
2022/03/11 08:23:55;;;;;;;12.55;6.82;;;;;;;0.64;43.61;96270.09;5064008;28;20024;-81
2022/03/11 08:26:20;;;;;;;15.27;7.28;;;;;;;0.34;44.70;96273.63;5066048;28;20020;-81
2022/03/11 08:28:46;;;;;;;12.43;7.30;;;;;;;0.67;43.43;96269.91;5064213;28;20036;-82
2022/03/11 08:31:11;;;;;;;11.25;7.30;;;;;;;0.91;42.34;96268.44;5064639;28;20020;-81
2022/03/11 08:33:39;;;;;;;10.13;6.63;;;;;;;1.11;41.92;96264.56;5064430;28;20495;-82
2022/03/11 08:36:05;;;;;;;10.82;7.40;;;;;;;1.36;41.27;96273.56;5048139;28;20035;-82
2022/03/11 08:38:31;;;;;;;11.48;7.20;;;;;;;1.40;40.46;96268.94;5047777;28;20056;-83
2022/03/11 08:40:56;;;;;;;11.27;7.20;;;;;;;1.16;41.21;96264.28;5063878;28;20397;-81
2022/03/11 08:43:22;;;;;;;13.38;8.05;;;;;;;0.48;41.93;96263.09;5064174;28;20477;-83
2022/03/11 08:45:48;;;;;;;10.10;6.72;;;;;;;0.65;42.75;96263.00;5066063;28;20407;-83
2022/03/11 08:48:13;;;;;;;10.82;6.80;;;;;;;0.84;42.64;96258.28;5067845;28;20115;-82
2022/03/11 08:50:38;;;;;;;11.90;6.97;;;;;;;0.49;42.58;96264.81;5067373;28;20435;-81
2022/03/11 08:53:04;;;;;;;9.30;6.45;;;;;;;0.48;42.28;96257.81;5068453;28;20449;-82
2022/03/11 08:55:29;;;;;;;11.50;7.45;;;;;;;0.38;42.00;96261.13;5069159;28;20028;-82
2022/03/11 08:57:55;;;;;;;9.35;6.20;;;;;;;0.44;42.31;96260.72;5050590;28;20024;-81
2022/03/11 09:00:21;;;;;;;10.73;6.07;;;;;;;0.50;41.63;96257.72;5051132;28;20031;-83
2022/03/11 09:02:47;;;;;;;13.82;8.00;;;;;;;0.31;41.97;96263.25;5050522;28;20064;-82
2022/03/11 09:05:15;;;;;;;12.30;6.93;;;;;;;0.52;41.43;96258.47;5051273;28;20021;-81
2022/03/11 09:07:40;;;;;;;11.10;7.47;;;;;;;0.36;42.28;96267.34;5050998;28;20130;-82
2022/03/11 09:10:08;;;;;;;10.90;6.80;;;;;;;0.46;42.21;96265.00;5069051;28;20471;-82
2022/03/11 09:12:34;;;;;;;11.27;7.10;;;;;;;0.88;41.67;96271.28;5068814;28;20048;-81
2022/03/11 09:14:59;;;;;;;11.68;7.60;;;;;;;0.78;41.33;96269.22;5050426;28;20407;-83
2022/03/11 09:17:25;;;;;;;13.20;8.10;;;;;;;0.66;41.21;96270.00;5067482;28;20024;-81
2022/03/11 09:19:51;;;;;;;10.38;6.85;;;;;;;0.56;41.16;96260.00;5033775;28;20525;-81
2022/03/11 09:22:17;;;;;;;13.32;7.72;;;;;;;1.07;42.03;96266.56;5051044;28;20531;-82
2022/03/11 09:24:44;;;;;;;11.43;7.57;;;;;;;1.24;40.38;96248.78;5066759;28;20017;-82
2022/03/11 09:27:11;;;;;;;12.32;8.25;;;;;;;1.46;39.84;96247.38;5051033;28;20021;-82
2022/03/11 09:29:37;;;;;;;12.20;8.77;;;;;;;1.58;39.92;96246.56;5066931;28;20028;-83
2022/03/11 09:32:03;;;;;;;12.18;8.05;;;;;;;1.69;40.75;96252.94;5067017;28;20474;-82
2022/03/11 09:34:29;;;;;;;12.93;7.78;;;;;;;1.57;39.64;96244.88;5034062;28;20081;-82
2022/03/11 09:36:55;;;;;;;11.65;7.28;;;;;;;1.37;39.31;96256.72;5033204;28;20028;-82
2022/03/11 09:39:21;;;;;;;13.23;7.97;;;;;;;1.33;39.50;96248.19;5067075;28;20025;-82
2022/03/11 09:41:46;;;;;;;13.90;7.43;;;;;;;1.08;40.12;96255.03;5032821;28;20503;-82
2022/03/11 09:44:16;;;;;;;11.52;7.85;;;;;;;1.04;39.33;96256.19;5050477;28;20035;-82
2022/03/11 09:46:42;;;;;;;11.55;6.82;;;;;;;1.02;40.60;96258.06;5049971;28;20094;-83
2022/03/11 09:49:08;;;;;;;12.10;7.63;;;;;;;0.85;40.53;96257.31;5066751;28;20028;-83
2022/03/11 09:51:34;;;;;;;11.27;7.10;;;;;;;0.85;40.93;96259.97;5050015;28;20119;-81
2022/03/11 09:54:00;;;;;;;12.10;7.50;;;;;;;0.72;39.70;96259.06;5067571;28;20032;-82
2022/03/11 09:56:25;;;;;;;15.32;7.88;;;;;;;0.81;40.04;96252.31;5068246;28;20111;-82
2022/03/11 09:58:50;;;;;;;22.27;11.23;;;;;;;1.16;39.46;96254.53;5048231;28;20484;-81
2022/03/11 10:01:16;;;;;;;13.00;7.65;;;;;;;0.95;39.97;96248.84;5050002;28;20476;-82
2022/03/11 10:03:41;;;;;;;13.88;8.02;;;;;;;0.95;39.53;96252.31;5067413;28;20027;-81
2022/03/11 10:06:07;;;;;;;11.98;7.55;;;;;;;0.86;39.96;96256.41;5067662;28;20107;-82
2022/03/11 10:08:44;;;;;;;14.27;7.20;;;;;;;0.94;40.97;96257.69;5049551;28;20070;-82
2022/03/11 10:11:27;;;;;;;10.52;7.63;;;;;;;0.87;41.07;96244.03;5066081;28;20547;-83
2022/03/11 10:13:53;;;;;;;13.75;7.80;;;;;;;0.94;40.63;96255.06;5067894;28;20107;-82
2022/03/11 10:16:23;;;;;;;10.30;7.20;;;;;;;0.72;40.64;96249.34;5049318;28;20033;-81
2022/03/11 10:18:59;;;;;;;11.38;6.82;;;;;;;0.67;40.59;96247.91;5049630;28;20400;-81
2022/03/11 10:21:34;;;;;;;10.65;7.03;;;;;;;0.68;39.68;96247.81;5050673;28;20021;-82
2022/03/11 10:24:02;;;;;;;13.02;8.02;;;;;;;0.64;39.57;96246.31;5067301;28;20070;-83
2022/03/11 10:26:32;;;;;;;12.55;7.85;;;;;;;0.63;40.63;96241.97;5049882;28;20031;-82
2022/03/11 10:28:58;;;;;;;12.30;7.45;;;;;;;0.65;41.03;96237.44;5049179;28;20530;-81
2022/03/11 10:31:36;;;;;;;11.38;6.95;;;;;;;0.43;41.12;96237.94;5066028;28;20150;-81
2022/03/11 10:34:31;;;;;;;11.95;7.53;;;;;;;0.46;41.21;96238.59;5065135;28;20025;-82
2022/03/11 10:37:04;;;;;;;12.00;7.05;;;;;;;0.48;40.25;96238.50;5057131;28;20047;-81
2022/03/11 10:39:36;;;;;;;10.93;7.25;;;;;;;0.56;40.31;96233.59;5032841;28;20035;-82
2022/03/11 10:42:20;;;;;;;12.85;7.68;;;;;;;0.53;40.52;96236.44;5049283;28;20025;-82
2022/03/11 10:45:03;;;;;;;11.13;7.10;;;;;;;0.65;42.96;96236.59;5067345;28;20456;-82
2022/03/11 10:47:34;;;;;;;13.60;7.85;;;;;;;0.60;41.37;96231.59;5067438;28;20033;-82
2022/03/11 10:50:01;;;;;;;12.27;7.38;;;;;;;0.69;41.49;96232.84;5065613;28;20036;-81
2022/03/11 10:52:39;;;;;;;14.00;7.72;;;;;;;0.72;42.23;96227.34;5065805;28;20052;-82
2022/03/11 10:55:16;;;;;;;10.82;6.80;;;;;;;0.81;40.81;96225.91;5066943;28;20051;-82
2022/03/11 10:57:42;;;;;;;11.48;7.22;;;;;;;0.70;39.05;96226.59;5065960;28;20028;-83
2022/03/11 11:00:20;;;;;;;10.43;7.22;;;;;;;0.57;39.85;96218.59;5048687;28;20047;-82
2022/03/11 11:02:47;;;;;;;15.10;8.48;;;;;;;0.70;39.47;96223.97;5067401;28;20589;-81
2022/03/11 11:05:13;;;;;;;16.15;8.80;;;;;;;0.69;39.64;96227.56;5049114;28;20483;-81
2022/03/11 11:07:41;;;;;;;12.15;8.02;;;;;;;0.65;39.56;96223.41;5049287;28;20093;-80
2022/03/11 11:10:12;;;;;;;16.17;9.18;;;;;;;0.59;39.39;96220.22;5049458;28;20060;-82
2022/03/11 11:12:38;;;;;;;13.25;7.25;;;;;;;0.65;38.71;96218.97;5067261;28;20027;-81
2022/03/11 11:15:04;;;;;;;10.18;7.22;;;;;;;0.77;39.56;96214.72;5065660;28;20021;-83
2022/03/11 11:17:29;;;;;;;9.60;6.68;;;;;;;0.76;39.08;96212.19;5064890;28;20327;-80
2022/03/11 11:19:57;;;;;;;11.05;7.35;;;;;;;0.75;39.57;96206.03;5048996;28;20016;-81